Time;durP1;ratioP1;P1;durP2;ratioP2;P2;SDS_P1;SDS_P2;PMS_P1;PMS_P2;Temp;Humidity;BMP_temperature;BMP_pressure;BME280_temperature;BME280_humidity;BME280_pressure;Samples;Min_cycle;Max_cycle;Signal;HPM_P1;HPM_P2
2021/09/21 00:01:39;;;;;;;9.38;4.93;;;;;;;9.70;100.00;102596.50;5265471;28;20485;-69
2021/09/21 00:04:10;;;;;;;6.15;4.60;;;;;;;9.66;100.00;102602.78;5265885;28;20036;-69
2021/09/21 00:06:41;;;;;;;6.53;4.88;;;;;;;9.65;100.00;102604.56;5265308;28;20017;-68
2021/09/21 00:09:13;;;;;;;6.57;4.93;;;;;;;9.66;100.00;102603.66;5264203;28;20031;-68
2021/09/21 00:11:44;;;;;;;5.72;4.88;;;;;;;9.65;100.00;102606.34;5263692;28;20398;-67
2021/09/21 00:14:15;;;;;;;8.00;4.90;;;;;;;9.59;100.00;102615.38;5265572;28;20111;-68
2021/09/21 00:16:47;;;;;;;5.50;4.82;;;;;;;9.67;100.00;102610.56;5264933;28;20032;-67
2021/09/21 00:19:18;;;;;;;7.07;5.20;;;;;;;9.60;100.00;102618.81;5265297;28;20070;-66
2021/09/21 00:21:49;;;;;;;8.07;4.88;;;;;;;9.59;100.00;102622.38;5262471;28;20086;-67
2021/09/21 00:24:21;;;;;;;6.10;4.72;;;;;;;9.61;100.00;102630.97;5264230;28;20033;-67
2021/09/21 00:26:52;;;;;;;5.97;4.65;;;;;;;9.66;100.00;102627.22;5261127;28;20079;-67
2021/09/21 00:29:23;;;;;;;7.13;4.90;;;;;;;9.61;100.00;102625.75;5264154;28;20107;-68
2021/09/21 00:32:01;;;;;;;9.00;4.70;;;;;;;9.66;100.00;102624.59;5264985;28;20032;-68
2021/09/21 00:34:37;;;;;;;7.45;4.78;;;;;;;9.62;100.00;102622.19;5266072;28;20547;-68
2021/09/21 00:37:14;;;;;;;8.35;5.20;;;;;;;9.71;100.00;102627.81;5265685;28;20029;-69
2021/09/21 00:39:46;;;;;;;6.25;4.63;;;;;;;9.62;100.00;102630.03;5264707;28;20092;-68
2021/09/21 00:42:29;;;;;;;6.53;5.57;;;;;;;9.69;100.00;102629.63;5263886;28;20021;-67
2021/09/21 00:45:06;;;;;;;6.43;5.22;;;;;;;9.68;100.00;102627.13;5264389;28;20031;-68
2021/09/21 00:47:38;;;;;;;7.05;5.40;;;;;;;9.60;100.00;102618.81;5266007;28;20488;-68
2021/09/21 00:50:09;;;;;;;7.95;5.32;;;;;;;9.63;100.00;102618.66;5264721;28;20048;-68
2021/09/21 00:52:41;;;;;;;6.57;5.38;;;;;;;9.60;100.00;102618.81;5264704;28;20036;-68
2021/09/21 00:55:12;;;;;;;6.68;5.20;;;;;;;9.54;100.00;102629.59;5264218;28;20073;-68
2021/09/21 00:57:44;;;;;;;8.32;5.95;;;;;;;9.55;100.00;102624.31;5265256;28;20033;-68
2021/09/21 01:00:20;;;;;;;5.72;5.00;;;;;;;9.58;100.00;102628.50;5263756;28;20028;-68
2021/09/21 01:02:51;;;;;;;6.05;5.00;;;;;;;9.48;100.00;102630.78;5261994;28;20460;-68
2021/09/21 01:05:23;;;;;;;7.28;5.20;;;;;;;9.47;100.00;102624.69;5264023;28;20028;-68
2021/09/21 01:07:54;;;;;;;6.53;5.20;;;;;;;9.47;100.00;102632.53;5263515;28;20071;-68
2021/09/21 01:10:27;;;;;;;6.35;5.30;;;;;;;9.53;100.00;102631.38;5265602;28;20024;-68
2021/09/21 01:12:59;;;;;;;7.13;5.05;;;;;;;9.44;100.00;102635.31;5263770;28;20090;-68
2021/09/21 01:15:30;;;;;;;6.47;5.45;;;;;;;9.59;100.00;102636.28;5262432;28;20025;-68
2021/09/21 01:18:01;;;;;;;6.53;5.10;;;;;;;9.48;100.00;102636.84;5264214;28;20021;-68
2021/09/21 01:20:33;;;;;;;7.47;5.72;;;;;;;9.45;100.00;102650.09;5264291;28;20044;-68
2021/09/21 01:23:05;;;;;;;6.68;4.80;;;;;;;9.46;100.00;102643.91;5263879;28;20833;-68
2021/09/21 01:25:36;;;;;;;7.20;5.40;;;;;;;9.45;100.00;102650.09;5263997;28;20054;-68
2021/09/21 01:28:08;;;;;;;7.60;5.28;;;;;;;9.39;100.00;102645.16;5264747;28;20032;-68
2021/09/21 01:30:39;;;;;;;6.60;5.45;;;;;;;9.38;100.00;102653.09;5266263;28;20063;-68
2021/09/21 01:33:10;;;;;;;7.30;5.20;;;;;;;9.33;100.00;102647.25;5265493;28;20477;-68
2021/09/21 01:35:41;;;;;;;6.85;5.68;;;;;;;9.34;100.00;102648.94;5266167;28;20039;-68
2021/09/21 01:38:13;;;;;;;6.00;5.30;;;;;;;9.38;100.00;102643.47;5270929;28;20013;-68
2021/09/21 01:40:44;;;;;;;6.80;5.70;;;;;;;9.27;100.00;102648.41;5267461;28;20025;-68
2021/09/21 01:43:15;;;;;;;6.80;5.53;;;;;;;9.34;100.00;102652.41;5269063;28;20031;-68
2021/09/21 01:45:47;;;;;;;7.57;5.57;;;;;;;9.38;100.00;102655.69;5270513;28;20032;-68
2021/09/21 01:48:18;;;;;;;6.82;5.43;;;;;;;9.24;100.00;102643.31;5266723;28;20126;-68
2021/09/21 01:50:58;;;;;;;5.72;5.05;;;;;;;9.25;100.00;102648.47;5268530;28;20537;-68
2021/09/21 01:58:56;;;;;;;8.13;5.82;;;;;;;9.13;100.00;102640.38;5269360;28;20116;-68
2021/09/21 02:01:28;;;;;;;6.60;5.55;;;;;;;9.07;100.00;102632.88;5265450;28;20521;-68
2021/09/21 02:04:04;;;;;;;7.13;5.95;;;;;;;9.13;100.00;102630.81;5267425;28;20020;-68
2021/09/21 02:06:42;;;;;;;6.72;5.38;;;;;;;8.94;100.00;102630.00;5266582;28;20476;-68
2021/09/21 02:09:14;;;;;;;7.10;5.35;;;;;;;8.96;100.00;102638.63;5266797;28;20036;-68
2021/09/21 02:11:46;;;;;;;8.05;5.72;;;;;;;8.96;100.00;102629.00;5265866;28;20082;-68
2021/09/21 02:14:18;;;;;;;7.65;5.68;;;;;;;8.87;100.00;102629.47;5266876;28;20441;-68
2021/09/21 02:16:54;;;;;;;9.37;5.47;;;;;;;8.84;100.00;102620.94;5266139;28;20068;-68
2021/09/21 02:19:26;;;;;;;8.57;6.15;;;;;;;8.82;100.00;102623.59;5267050;28;20935;-68
2021/09/21 02:21:57;;;;;;;6.90;6.05;;;;;;;8.79;100.00;102623.78;5267322;28;20154;-68
2021/09/21 02:24:29;;;;;;;9.40;5.68;;;;;;;8.72;100.00;102617.16;5267932;28;20048;-68
2021/09/21 02:27:02;;;;;;;7.10;6.03;;;;;;;8.67;100.00;102625.19;5267644;28;20403;-68
2021/09/21 02:29:33;;;;;;;8.25;6.07;;;;;;;8.69;100.00;102627.75;5267004;28;20508;-68
2021/09/21 02:32:05;;;;;;;6.22;5.57;;;;;;;8.55;100.00;102627.56;5266779;28;20040;-68
2021/09/21 02:34:36;;;;;;;7.93;6.60;;;;;;;8.60;100.00;102630.78;5268143;28;20584;-68
2021/09/21 02:37:07;;;;;;;7.35;5.68;;;;;;;8.57;100.00;102634.41;5266798;28;20115;-68
2021/09/21 02:39:39;;;;;;;8.93;5.60;;;;;;;8.51;100.00;102634.69;5266291;28;20048;-67
2021/09/21 02:42:11;;;;;;;9.77;6.10;;;;;;;8.44;100.00;102639.34;5266687;28;20028;-68
2021/09/21 02:44:42;;;;;;;7.00;6.10;;;;;;;8.40;100.00;102635.19;5266578;28;20029;-67
2021/09/21 02:47:16;;;;;;;8.85;6.07;;;;;;;8.43;100.00;102644.66;5266691;28;20416;-67
2021/09/21 02:49:47;;;;;;;9.10;6.25;;;;;;;8.32;100.00;102636.44;5265567;28;20035;-67
2021/09/21 02:52:18;;;;;;;7.35;6.55;;;;;;;8.36;100.00;102648.44;5268130;28;20028;-69
2021/09/21 02:54:49;;;;;;;8.27;6.35;;;;;;;8.25;100.00;102641.94;5266626;28;20435;-67
2021/09/21 02:57:21;;;;;;;7.50;5.95;;;;;;;8.35;100.00;102651.97;5264276;28;20397;-68
2021/09/21 02:59:52;;;;;;;9.68;6.78;;;;;;;8.29;100.00;102650.50;5267803;28;20033;-68
2021/09/21 03:02:24;;;;;;;9.70;6.55;;;;;;;8.28;100.00;102656.63;5265629;28;20492;-67
2021/09/21 03:04:59;;;;;;;7.85;6.97;;;;;;;8.26;100.00;102658.50;5267446;28;20062;-67
2021/09/21 03:07:57;;;;;;;14.00;7.25;;;;;;;8.24;100.00;102660.31;5265060;28;20028;-67
2021/09/21 03:10:32;;;;;;;6.97;6.28;;;;;;;8.24;100.00;102657.69;5264643;28;20033;-69
2021/09/21 03:18:43;;;;;;;7.95;7.05;;;;;;;8.11;100.00;102664.41;5265514;28;20057;-68
2021/09/21 03:21:15;;;;;;;8.77;7.18;;;;;;;8.11;100.00;102654.81;5264510;28;20308;-67
2021/09/21 03:23:46;;;;;;;8.82;7.18;;;;;;;8.07;100.00;102663.69;5267408;28;20028;-67
2021/09/21 03:26:18;;;;;;;7.60;6.65;;;;;;;8.04;100.00;102675.13;5264396;28;20033;-67
2021/09/21 03:28:49;;;;;;;8.10;6.18;;;;;;;7.99;100.00;102669.25;5266656;28;20060;-67
2021/09/21 03:31:21;;;;;;;8.65;6.50;;;;;;;7.93;100.00;102669.53;5265360;28;20037;-67
2021/09/21 03:33:52;;;;;;;10.63;6.55;;;;;;;8.00;100.00;102678.78;5265040;28;20159;-68
2021/09/21 03:36:23;;;;;;;8.38;6.30;;;;;;;7.95;100.00;102675.50;5267261;28;20120;-67
2021/09/21 03:38:55;;;;;;;12.18;7.45;;;;;;;8.01;100.00;102682.22;5266514;28;20048;-67
2021/09/21 03:41:26;;;;;;;7.53;6.57;;;;;;;7.90;100.00;102682.69;5265346;28;20165;-67
2021/09/21 03:43:57;;;;;;;7.68;6.20;;;;;;;7.83;100.00;102693.47;5265312;28;20036;-67
2021/09/21 03:46:29;;;;;;;11.95;7.40;;;;;;;7.80;100.00;102703.16;5265564;28;20413;-67
2021/09/21 03:49:00;;;;;;;8.40;6.97;;;;;;;7.78;100.00;102696.28;5263749;28;20039;-67
2021/09/21 03:51:31;;;;;;;11.05;7.28;;;;;;;7.75;100.00;102701.63;5266241;28;20064;-67
2021/09/21 03:54:04;;;;;;;8.20;6.97;;;;;;;7.77;100.00;102705.03;5264686;28;20025;-67
2021/09/21 03:56:37;;;;;;;8.43;7.10;;;;;;;7.72;100.00;102700.00;5261329;28;20161;-67
2021/09/21 03:59:08;;;;;;;9.13;7.43;;;;;;;7.71;100.00;102700.06;5264050;28;20027;-68
2021/09/21 04:01:40;;;;;;;8.00;7.00;;;;;;;7.63;100.00;102700.41;5261833;28;20033;-68
2021/09/21 04:04:11;;;;;;;8.15;6.78;;;;;;;7.61;100.00;102707.44;5262915;28;20020;-67
2021/09/21 04:06:42;;;;;;;10.68;7.05;;;;;;;7.63;100.00;102712.59;5264378;28;20028;-67
2021/09/21 04:09:14;;;;;;;8.88;6.82;;;;;;;7.59;100.00;102713.66;5263512;28;20028;-67
2021/09/21 04:11:45;;;;;;;8.80;7.05;;;;;;;7.55;100.00;102716.38;5268636;28;20034;-67
2021/09/21 04:14:17;;;;;;;8.70;7.13;;;;;;;7.48;100.00;102729.75;5263670;28;20470;-67
2021/09/21 04:16:48;;;;;;;9.82;6.22;;;;;;;7.54;100.00;102727.75;5266371;28;20501;-67
2021/09/21 04:19:19;;;;;;;8.38;6.50;;;;;;;7.47;100.00;102738.50;5264537;28;20036;-67
2021/09/21 04:21:51;;;;;;;9.75;6.97;;;;;;;7.44;100.00;102736.84;5263926;28;20029;-67
2021/09/21 04:24:22;;;;;;;9.52;6.35;;;;;;;7.41;100.00;102742.19;5265484;28;20025;-67
2021/09/21 04:26:53;;;;;;;8.80;7.13;;;;;;;7.33;100.00;102736.44;5267029;28;20112;-67
2021/09/21 04:29:25;;;;;;;9.20;6.40;;;;;;;7.35;100.00;102734.63;5266052;28;20021;-67
2021/09/21 04:32:01;;;;;;;10.13;7.43;;;;;;;7.25;100.00;102741.13;5262699;28;20534;-67
2021/09/21 04:34:32;;;;;;;10.63;7.85;;;;;;;7.20;100.00;102754.34;5265637;28;20024;-67
2021/09/21 04:37:04;;;;;;;8.30;5.95;;;;;;;7.24;100.00;102747.25;5265951;28;20389;-67
2021/09/21 04:39:40;;;;;;;9.88;7.70;;;;;;;7.19;100.00;102736.13;5260088;28;20049;-69
2021/09/21 04:42:12;;;;;;;10.10;7.35;;;;;;;7.22;100.00;102730.81;5264839;28;20027;-67
2021/09/21 04:44:43;;;;;;;7.78;6.97;;;;;;;7.22;100.00;102741.25;5264329;28;20119;-67
2021/09/21 04:47:14;;;;;;;8.00;6.95;;;;;;;7.24;100.00;102744.66;5262665;28;20128;-67
2021/09/21 04:49:46;;;;;;;8.32;6.93;;;;;;;7.16;100.00;102751.91;5265867;28;20337;-67
2021/09/21 04:52:17;;;;;;;11.95;7.20;;;;;;;7.21;100.00;102770.84;5265524;28;20477;-67
2021/09/21 04:54:49;;;;;;;9.98;7.28;;;;;;;7.10;100.00;102754.75;5264148;28;20032;-69
2021/09/21 04:57:20;;;;;;;9.25;7.50;;;;;;;7.12;100.00;102753.78;5264616;28;20266;-69
2021/09/21 04:59:51;;;;;;;9.95;7.80;;;;;;;7.15;100.00;102756.25;5262771;28;20028;-69
2021/09/21 05:02:25;;;;;;;8.35;7.45;;;;;;;7.09;100.00;102748.72;5265287;28;20036;-67
2021/09/21 05:04:56;;;;;;;8.48;7.55;;;;;;;7.10;100.00;102753.00;5265130;28;20020;-67
2021/09/21 05:07:27;;;;;;;8.40;7.60;;;;;;;6.99;100.00;102766.44;5264503;28;20025;-67
2021/09/21 05:09:59;;;;;;;7.95;6.65;;;;;;;7.03;100.00;102781.06;5266653;28;20290;-67
2021/09/21 05:12:30;;;;;;;8.90;7.50;;;;;;;6.95;100.00;102783.13;5268311;28;20025;-67
2021/09/21 05:15:02;;;;;;;8.85;7.30;;;;;;;7.00;100.00;102785.53;5268124;28;20114;-67
2021/09/21 05:17:33;;;;;;;8.70;6.72;;;;;;;6.94;100.00;102777.97;5269274;28;20736;-68
2021/09/21 05:20:06;;;;;;;11.63;7.93;;;;;;;6.98;100.00;102769.97;5268657;28;20107;-67
2021/09/21 05:22:37;;;;;;;8.77;7.70;;;;;;;6.97;100.00;102770.00;5267730;28;20037;-67
2021/09/21 05:25:11;;;;;;;9.25;7.53;;;;;;;6.99;100.00;102771.66;5264797;28;20575;-67
2021/09/21 05:27:42;;;;;;;10.27;7.90;;;;;;;6.93;100.00;102771.91;5265681;28;20038;-67
2021/09/21 05:30:14;;;;;;;9.95;7.45;;;;;;;6.92;100.00;102779.78;5264548;28;20474;-67
2021/09/21 05:32:45;;;;;;;8.93;7.15;;;;;;;6.95;100.00;102787.47;5259800;28;20032;-67
2021/09/21 05:35:17;;;;;;;9.18;7.75;;;;;;;6.91;100.00;102796.31;5266924;28;20027;-68
2021/09/21 05:37:48;;;;;;;7.80;7.00;;;;;;;6.94;100.00;102806.63;5264679;28;20036;-67
2021/09/21 05:40:20;;;;;;;11.57;8.00;;;;;;;6.89;100.00;102805.94;5265233;28;20040;-68
2021/09/21 05:42:52;;;;;;;10.70;7.75;;;;;;;6.98;100.00;102814.28;5260333;28;20542;-67
2021/09/21 05:45:23;;;;;;;9.85;7.20;;;;;;;6.88;100.00;102815.53;5258228;28;20056;-67
2021/09/21 05:47:56;;;;;;;12.90;8.02;;;;;;;6.85;100.00;102814.78;5260595;28;20039;-67
2021/09/21 05:50:28;;;;;;;;;;;;;;;7.23;100.00;102818.53;5262584;28;20111;-67
2021/09/21 05:52:59;;;;;;;13.60;7.63;;;;;;;6.94;100.00;102820.50;5266914;28;20069;-67
2021/09/21 05:55:33;;;;;;;11.57;7.75;;;;;;;6.93;100.00;102818.81;5269225;28;20025;-67
2021/09/21 05:58:04;;;;;;;13.10;7.70;;;;;;;6.92;100.00;102821.47;5266363;28;20385;-67
2021/09/21 06:00:36;;;;;;;10.43;8.15;;;;;;;6.93;100.00;102824.03;5266801;28;20029;-67
2021/09/21 06:03:08;;;;;;;12.38;8.00;;;;;;;6.95;100.00;102811.78;5263378;28;20766;-68
2021/09/21 06:05:39;;;;;;;11.00;8.57;;;;;;;6.97;100.00;102812.59;5263385;28;20082;-67
2021/09/21 06:08:11;;;;;;;10.63;8.15;;;;;;;7.04;100.00;102816.63;5263163;28;20036;-67
2021/09/21 06:10:42;;;;;;;9.00;7.93;;;;;;;7.05;100.00;102823.56;5263962;28;20025;-67
2021/09/21 06:13:13;;;;;;;10.15;7.93;;;;;;;7.07;100.00;102823.50;5265152;28;20021;-67
2021/09/21 06:15:47;;;;;;;11.48;8.43;;;;;;;7.12;100.00;102825.91;5265263;28;20082;-67
2021/09/21 06:18:18;;;;;;;11.82;8.73;;;;;;;7.15;100.00;102833.63;5263998;28;20143;-67
2021/09/21 06:20:50;;;;;;;10.30;8.27;;;;;;;7.19;100.00;102832.59;5266076;28;20486;-67
2021/09/21 06:23:21;;;;;;;12.90;8.50;;;;;;;7.20;100.00;102836.91;5267112;28;20025;-68
2021/09/21 06:25:52;;;;;;;11.98;8.88;;;;;;;7.23;100.00;102844.59;5265455;28;20072;-69
2021/09/21 06:28:24;;;;;;;10.95;9.25;;;;;;;7.29;100.00;102844.38;5265356;28;20151;-67
2021/09/21 06:30:55;;;;;;;11.38;10.18;;;;;;;7.37;100.00;102838.84;5264888;28;20032;-67
2021/09/21 06:33:26;;;;;;;9.93;8.63;;;;;;;7.43;100.00;102823.81;5262311;28;20021;-68
2021/09/21 06:35:58;;;;;;;13.43;10.07;;;;;;;7.53;100.00;102837.31;5264204;28;20056;-67
2021/09/21 06:38:29;;;;;;;20.63;11.00;;;;;;;7.60;100.00;102854.44;5265980;28;20241;-67
2021/09/21 06:41:01;;;;;;;11.23;9.85;;;;;;;7.64;100.00;102863.84;5266857;28;20397;-68
2021/09/21 06:43:33;;;;;;;12.05;10.75;;;;;;;7.82;100.00;102867.47;5266650;28;20029;-68
2021/09/21 06:46:04;;;;;;;14.98;10.55;;;;;;;7.91;100.00;102872.28;5258584;28;20462;-68
2021/09/21 06:48:39;;;;;;;13.75;10.02;;;;;;;7.99;100.00;102879.81;5260129;28;20029;-68
2021/09/21 06:51:11;;;;;;;14.00;10.57;;;;;;;8.10;100.00;102871.53;5264398;28;20040;-68
2021/09/21 06:53:42;;;;;;;13.82;11.18;;;;;;;8.19;100.00;102872.00;5264950;28;20577;-68
2021/09/21 06:56:14;;;;;;;14.73;11.10;;;;;;;8.27;100.00;102879.53;5264299;28;20086;-68
2021/09/21 06:58:45;;;;;;;14.18;11.68;;;;;;;8.35;100.00;102885.25;5265409;28;20097;-68
2021/09/21 07:01:16;;;;;;;15.85;11.85;;;;;;;8.40;100.00;102896.38;5265886;28;20520;-69
2021/09/21 07:03:48;;;;;;;13.18;11.40;;;;;;;8.50;100.00;102895.09;5263144;28;20090;-67
2021/09/21 07:06:19;;;;;;;12.80;10.95;;;;;;;8.59;100.00;102890.38;5263149;28;20037;-68
2021/09/21 07:08:50;;;;;;;14.98;11.77;;;;;;;8.67;100.00;102898.72;5258474;28;20039;-68
2021/09/21 07:11:21;;;;;;;13.95;11.57;;;;;;;8.74;100.00;102894.91;5264537;28;20032;-68
2021/09/21 07:13:53;;;;;;;15.20;11.52;;;;;;;8.87;100.00;102897.84;5256011;28;20027;-69
2021/09/21 07:16:24;;;;;;;14.80;11.10;;;;;;;8.97;100.00;102897.34;5264473;28;20365;-68
2021/09/21 07:18:55;;;;;;;13.27;11.00;;;;;;;9.08;100.00;102894.25;5264232;28;20021;-68
2021/09/21 07:21:28;;;;;;;13.00;11.55;;;;;;;9.16;100.00;102886.91;5267163;28;20320;-68
2021/09/21 07:23:59;;;;;;;15.23;11.65;;;;;;;9.24;100.00;102889.16;5264090;28;20043;-67
2021/09/21 07:26:30;;;;;;;12.23;10.93;;;;;;;9.24;100.00;102890.03;5263312;28;20024;-69
2021/09/21 07:29:02;;;;;;;12.95;11.60;;;;;;;9.35;100.00;102889.50;5266135;28;20024;-68
2021/09/21 07:31:33;;;;;;;15.10;12.38;;;;;;;9.44;100.00;102881.25;5261627;28;20032;-68
2021/09/21 07:34:05;;;;;;;15.25;11.65;;;;;;;9.49;100.00;102888.88;5261692;28;20033;-67
2021/09/21 07:36:36;;;;;;;15.05;11.13;;;;;;;9.64;100.00;102897.75;5262420;28;20029;-69
2021/09/21 07:39:08;;;;;;;13.82;11.35;;;;;;;9.72;100.00;102895.59;5261338;28;20049;-69
2021/09/21 07:41:39;;;;;;;14.77;11.32;;;;;;;9.88;100.00;102895.72;5259256;28;20021;-68
2021/09/21 07:44:10;;;;;;;14.40;12.43;;;;;;;10.05;100.00;102907.97;5261977;28;20028;-68
2021/09/21 07:46:42;;;;;;;13.05;11.63;;;;;;;10.12;100.00;102902.38;5265642;28;20028;-67
2021/09/21 07:49:13;;;;;;;15.70;11.25;;;;;;;10.19;100.00;102916.84;5266685;28;20103;-68
2021/09/21 07:51:45;;;;;;;13.50;10.80;;;;;;;10.34;100.00;102904.78;5266308;28;20366;-68
2021/09/21 07:54:17;;;;;;;17.70;11.65;;;;;;;10.44;100.00;102905.16;5261967;28;20020;-68
2021/09/21 07:56:48;;;;;;;13.25;11.52;;;;;;;10.69;100.00;102900.34;5263903;28;20024;-68
2021/09/21 07:59:19;;;;;;;16.40;11.05;;;;;;;10.76;100.00;102893.00;5261479;28;20493;-68
2021/09/21 08:01:50;;;;;;;14.77;10.90;;;;;;;10.92;100.00;102898.28;5263121;28;20486;-69
2021/09/21 08:04:22;;;;;;;15.55;11.57;;;;;;;11.12;100.00;102907.69;5264764;28;20024;-68
2021/09/21 08:06:53;;;;;;;14.60;11.40;;;;;;;11.20;100.00;102918.59;5261622;28;20504;-68
2021/09/21 08:09:27;;;;;;;14.15;11.23;;;;;;;11.45;100.00;102918.13;5263061;28;20556;-68
2021/09/21 08:11:58;;;;;;;13.52;11.10;;;;;;;11.49;100.00;102913.56;5262354;28;20024;-70
2021/09/21 08:14:36;;;;;;;14.25;10.95;;;;;;;11.63;100.00;102919.72;5265021;28;20086;-68
2021/09/21 08:17:08;;;;;;;12.80;10.82;;;;;;;11.63;100.00;102921.47;5266313;28;20012;-68
2021/09/21 08:19:39;;;;;;;11.82;10.57;;;;;;;11.78;100.00;102923.28;5263733;28;20038;-68
2021/09/21 08:22:10;;;;;;;12.90;10.85;;;;;;;11.87;100.00;102925.38;5262051;28;20031;-69
2021/09/21 08:24:43;;;;;;;15.10;10.88;;;;;;;11.97;100.00;102922.22;5264967;28;20047;-68
2021/09/21 08:27:15;;;;;;;14.82;10.45;;;;;;;12.16;100.00;102936.00;5261902;28;20021;-70
2021/09/21 08:29:46;;;;;;;11.75;9.80;;;;;;;12.28;100.00;102931.81;5261602;28;20020;-68
2021/09/21 08:32:18;;;;;;;13.52;11.05;;;;;;;12.35;100.00;102935.75;5264314;28;20027;-68
2021/09/21 08:34:49;;;;;;;14.13;10.38;;;;;;;12.52;100.00;102945.28;5263998;28;20082;-69
2021/09/21 08:37:20;;;;;;;12.10;10.57;;;;;;;12.63;100.00;102954.22;5267266;28;20097;-68
2021/09/21 08:39:51;;;;;;;13.85;10.68;;;;;;;12.71;100.00;102956.41;5263170;28;20061;-68
2021/09/21 08:42:23;;;;;;;11.80;10.60;;;;;;;12.80;100.00;102950.56;5263429;28;20020;-69
2021/09/21 08:44:54;;;;;;;13.80;10.75;;;;;;;12.98;100.00;102959.13;5263000;28;20426;-68
2021/09/21 08:47:26;;;;;;;12.57;10.45;;;;;;;13.08;100.00;102959.41;5265401;28;20082;-68
2021/09/21 08:49:57;;;;;;;11.00;9.90;;;;;;;13.17;100.00;102961.47;5264919;28;20037;-69
2021/09/21 08:52:28;;;;;;;14.50;9.70;;;;;;;13.24;100.00;102959.34;5262998;28;20028;-68
2021/09/21 08:55:00;;;;;;;12.05;8.73;;;;;;;13.32;100.00;102971.06;5263415;28;20024;-68
2021/09/21 08:57:32;;;;;;;15.93;9.90;;;;;;;13.38;100.00;102959.34;5263278;28;20215;-68
2021/09/21 09:00:05;;;;;;;16.65;10.25;;;;;;;13.51;100.00;102959.38;5262110;28;20020;-68
2021/09/21 09:02:37;;;;;;;12.55;9.13;;;;;;;13.67;100.00;102960.09;5263936;28;20511;-68
2021/09/21 09:05:09;;;;;;;12.00;8.65;;;;;;;13.68;100.00;102967.06;5260933;28;20032;-70
2021/09/21 09:07:53;;;;;;;11.33;8.20;;;;;;;13.95;100.00;102971.50;5262209;28;20033;-69
2021/09/21 09:10:24;;;;;;;10.13;9.02;;;;;;;14.07;100.00;102968.91;5264057;28;20086;-69
2021/09/21 09:12:55;;;;;;;8.82;7.95;;;;;;;14.08;100.00;102967.94;5266325;28;20032;-69
2021/09/21 09:15:27;;;;;;;9.82;7.88;;;;;;;14.32;100.00;102967.28;5261921;28;20477;-68
2021/09/21 09:17:59;;;;;;;10.77;8.00;;;;;;;14.43;100.00;102966.53;5259786;28;20482;-67
2021/09/21 09:20:35;;;;;;;10.07;7.90;;;;;;;14.50;100.00;102967.84;5262155;28;20492;-68
2021/09/21 09:23:08;;;;;;;9.23;7.68;;;;;;;14.65;100.00;102961.53;5262632;28;20060;-67
2021/09/21 09:25:45;;;;;;;11.13;7.50;;;;;;;14.80;100.00;102964.91;5261199;28;20037;-68
2021/09/21 09:28:23;;;;;;;8.13;7.32;;;;;;;14.93;100.00;102970.22;5261300;28;20163;-68
2021/09/21 09:30:56;;;;;;;10.15;7.40;;;;;;;14.94;100.00;102971.88;5263403;28;20040;-68
2021/09/21 09:33:33;;;;;;;8.68;7.13;;;;;;;15.15;100.00;102966.88;5260642;28;20503;-68
2021/09/21 09:36:04;;;;;;;7.95;7.15;;;;;;;15.20;100.00;102963.00;5258972;28;20772;-70
2021/09/21 09:38:41;;;;;;;8.95;7.50;;;;;;;15.24;100.00;102953.06;5257771;28;20481;-69
2021/09/21 09:41:14;;;;;;;9.80;6.80;;;;;;;15.23;100.00;102956.66;5260953;28;20060;-68
2021/09/21 09:43:48;;;;;;;7.90;6.78;;;;;;;15.39;100.00;102959.03;5263508;28;20107;-70
2021/09/21 09:46:19;;;;;;;10.85;7.15;;;;;;;15.43;100.00;102957.88;5260999;28;20029;-69
2021/09/21 09:48:57;;;;;;;8.60;6.97;;;;;;;15.53;100.00;102961.50;5263298;28;20017;-68
2021/09/21 09:51:28;;;;;;;8.45;7.40;;;;;;;15.52;100.00;102968.59;5261540;28;20428;-69
2021/09/21 09:54:00;;;;;;;8.93;6.28;;;;;;;15.57;100.00;102969.13;5266598;28;20090;-70
2021/09/21 09:56:31;;;;;;;9.57;5.63;;;;;;;15.74;100.00;102970.56;5264396;28;20029;-69
2021/09/21 09:59:04;;;;;;;6.38;5.68;;;;;;;15.84;100.00;102967.25;5265226;28;20915;-70
2021/09/21 10:01:36;;;;;;;6.25;5.13;;;;;;;15.78;100.00;102969.38;5262596;28;20401;-68
2021/09/21 10:04:07;;;;;;;6.13;4.57;;;;;;;15.78;100.00;102961.44;5265901;28;20024;-69
2021/09/21 10:06:40;;;;;;;7.95;5.60;;;;;;;15.99;100.00;102982.84;5265074;28;20320;-69
2021/09/21 10:09:15;;;;;;;7.63;4.77;;;;;;;16.19;100.00;102973.41;5266262;28;20103;-68
2021/09/21 10:11:49;;;;;;;6.45;4.70;;;;;;;16.16;100.00;102973.63;5265347;28;20405;-69
2021/09/21 10:14:22;;;;;;;6.45;5.10;;;;;;;16.37;100.00;102975.66;5263495;28;20123;-70
2021/09/21 10:16:54;;;;;;;8.77;5.53;;;;;;;16.48;100.00;102975.69;5262404;28;20029;-70
2021/09/21 10:19:27;;;;;;;6.27;4.87;;;;;;;16.56;97.42;102975.94;5266100;28;20504;-69
2021/09/21 10:21:58;;;;;;;6.18;5.28;;;;;;;16.67;98.21;102965.38;5266234;28;20270;-69
2021/09/21 10:24:33;;;;;;;6.22;4.97;;;;;;;16.72;98.71;102965.84;5265694;28;20036;-69
2021/09/21 10:27:13;;;;;;;7.03;4.88;;;;;;;16.86;97.46;102974.53;5265565;28;20031;-69
2021/09/21 10:29:44;;;;;;;5.60;4.53;;;;;;;16.76;96.46;102971.78;5267310;28;20402;-70
2021/09/21 10:32:16;;;;;;;7.38;5.20;;;;;;;16.87;98.59;102966.50;5267834;28;20021;-69
2021/09/21 10:34:48;;;;;;;6.10;4.50;;;;;;;16.99;97.32;102969.97;5264302;28;20081;-69
2021/09/21 10:37:21;;;;;;;4.53;3.80;;;;;;;17.10;94.06;102961.19;5266924;28;20040;-70
2021/09/21 10:40:03;;;;;;;;;;;;;;;17.43;98.63;102955.84;5263453;28;20390;-71
2021/09/21 10:42:35;;;;;;;6.65;5.00;;;;;;;17.11;92.73;102965.53;5266489;28;19960;-71
2021/09/21 10:45:07;;;;;;;5.15;4.50;;;;;;;17.13;93.73;102959.16;5267428;28;20043;-69
2021/09/21 10:47:39;;;;;;;8.63;4.28;;;;;;;17.37;94.07;102955.50;5266202;28;20029;-69
2021/09/21 10:50:16;;;;;;;8.32;4.57;;;;;;;17.48;91.85;102964.28;5263881;28;20308;-70
2021/09/21 10:52:47;;;;;;;6.65;4.63;;;;;;;17.24;87.83;102960.94;5267646;28;20032;-69
2021/09/21 10:55:20;;;;;;;8.18;4.97;;;;;;;17.39;88.31;102961.53;5261378;28;20039;-71
2021/09/21 10:57:52;;;;;;;;;;;;;;;17.79;94.24;102966.28;5265825;28;20051;-69
2021/09/21 11:00:23;;;;;;;6.35;3.95;;;;;;;17.46;90.01;102966.22;5264011;28;20344;-71
2021/09/21 11:02:56;;;;;;;7.10;5.32;;;;;;;17.46;91.98;102966.22;5266002;28;20479;-70
2021/09/21 11:05:27;;;;;;;5.97;4.97;;;;;;;17.48;89.14;102964.28;5267538;28;20386;-70
2021/09/21 11:08:06;;;;;;;6.95;5.22;;;;;;;17.61;94.27;102969.41;5264954;28;20282;-69
2021/09/21 11:10:39;;;;;;;6.60;5.32;;;;;;;17.51;90.03;102965.84;5264994;28;20090;-69
2021/09/21 11:13:12;;;;;;;;;;;;;;;18.06;93.96;102973.75;5267387;28;20485;-69
2021/09/21 11:15:45;;;;;;;7.25;5.30;;;;;;;17.84;86.78;102964.06;5255267;28;20654;-72
2021/09/21 11:18:18;;;;;;;;;;;;;;;18.29;93.21;102975.31;5262551;28;20048;-69
2021/09/21 11:20:56;;;;;;;6.05;4.80;;;;;;;18.12;87.17;102968.78;5266093;28;19918;-69
2021/09/21 11:23:31;;;;;;;8.60;5.28;;;;;;;18.03;88.45;102966.06;5265621;28;20052;-70
2021/09/21 11:26:06;;;;;;;6.07;5.03;;;;;;;18.33;88.61;102965.28;5262236;28;20051;-70
2021/09/21 11:28:44;;;;;;;8.80;5.32;;;;;;;18.36;89.96;102970.34;5264580;28;20158;-71
2021/09/21 11:31:18;;;;;;;6.45;4.93;;;;;;;18.36;86.90;102960.56;5261979;28;20032;-70
2021/09/21 11:33:53;;;;;;;6.88;6.18;;;;;;;18.22;87.00;102972.38;5263260;28;20033;-69
2021/09/21 11:36:25;;;;;;;6.72;5.28;;;;;;;18.35;89.85;102971.34;5258802;28;20473;-71
2021/09/21 11:38:57;;;;;;;8.88;5.68;;;;;;;18.38;90.39;102966.59;5260862;28;20132;-69
2021/09/21 11:41:28;;;;;;;7.82;5.68;;;;;;;18.31;87.24;102970.75;5260055;28;20036;-70
2021/09/21 11:44:01;;;;;;;7.47;5.87;;;;;;;18.37;85.84;102966.72;5264080;28;20055;-70
2021/09/21 11:46:32;;;;;;;8.20;5.55;;;;;;;18.35;85.73;102972.16;5264998;28;20028;-69
2021/09/21 11:49:03;;;;;;;6.55;5.28;;;;;;;18.58;85.92;102964.91;5263542;28;20020;-71
2021/09/21 11:51:37;;;;;;;7.60;5.40;;;;;;;18.51;83.38;102965.56;5262472;28;20040;-70
2021/09/21 11:54:09;;;;;;;6.90;5.50;;;;;;;18.69;86.09;102954.22;5265485;28;20028;-70